sensor_id;sensor_type;location;lat;lon;timestamp;temperature;humidity
6627;DHT22;3349;49.830;8.748;2023-05-14T00:01:12;9.70;99.90
6627;DHT22;3349;49.830;8.748;2023-05-14T00:03:39;9.70;99.90
6627;DHT22;3349;49.830;8.748;2023-05-14T00:06:07;9.70;99.90
6627;DHT22;3349;49.830;8.748;2023-05-14T00:08:35;9.60;99.90
6627;DHT22;3349;49.830;8.748;2023-05-14T00:11:02;9.60;99.90
6627;DHT22;3349;49.830;8.748;2023-05-14T00:13:29;9.60;99.90
6627;DHT22;3349;49.830;8.748;2023-05-14T00:15:55;9.60;99.90
6627;DHT22;3349;49.830;8.748;2023-05-14T00:18:22;9.60;99.90
6627;DHT22;3349;49.830;8.748;2023-05-14T00:20:48;9.50;99.90
6627;DHT22;3349;49.830;8.748;2023-05-14T00:23:20;9.50;99.90
6627;DHT22;3349;49.830;8.748;2023-05-14T00:25:47;9.50;99.90
6627;DHT22;3349;49.830;8.748;2023-05-14T00:28:13;9.40;99.90
6627;DHT22;3349;49.830;8.748;2023-05-14T00:30:40;9.40;99.90
6627;DHT22;3349;49.830;8.748;2023-05-14T00:33:07;9.40;99.90
6627;DHT22;3349;49.830;8.748;2023-05-14T00:35:34;9.40;99.90
6627;DHT22;3349;49.830;8.748;2023-05-14T00:38:01;9.50;99.90
6627;DHT22;3349;49.830;8.748;2023-05-14T00:40:29;9.50;99.90
6627;DHT22;3349;49.830;8.748;2023-05-14T00:42:56;9.50;99.90
6627;DHT22;3349;49.830;8.748;2023-05-14T00:45:22;9.50;99.90
6627;DHT22;3349;49.830;8.748;2023-05-14T00:47:49;9.50;99.90
6627;DHT22;3349;49.830;8.748;2023-05-14T00:50:16;9.50;99.90
6627;DHT22;3349;49.830;8.748;2023-05-14T00:52:43;9.50;99.90
6627;DHT22;3349;49.830;8.748;2023-05-14T00:55:12;9.40;99.90
6627;DHT22;3349;49.830;8.748;2023-05-14T00:57:42;9.40;99.90
6627;DHT22;3349;49.830;8.748;2023-05-14T01:00:10;9.40;99.90
6627;DHT22;3349;49.830;8.748;2023-05-14T01:02:36;9.30;99.90
6627;DHT22;3349;49.830;8.748;2023-05-14T01:05:04;9.30;99.90
6627;DHT22;3349;49.830;8.748;2023-05-14T01:07:38;9.20;99.90
6627;DHT22;3349;49.830;8.748;2023-05-14T01:10:13;9.20;99.90
6627;DHT22;3349;49.830;8.748;2023-05-14T01:12:47;9.30;99.90
6627;DHT22;3349;49.830;8.748;2023-05-14T01:15:21;9.20;99.90
6627;DHT22;3349;49.830;8.748;2023-05-14T01:17:52;9.20;99.90
6627;DHT22;3349;49.830;8.748;2023-05-14T01:20:20;9.20;99.90
6627;DHT22;3349;49.830;8.748;2023-05-14T01:22:49;9.20;99.90
6627;DHT22;3349;49.830;8.748;2023-05-14T01:25:18;9.20;99.90
6627;DHT22;3349;49.830;8.748;2023-05-14T01:27:49;9.10;99.90
6627;DHT22;3349;49.830;8.748;2023-05-14T01:30:22;9.00;99.90
6627;DHT22;3349;49.830;8.748;2023-05-14T01:32:53;9.00;99.90
6627;DHT22;3349;49.830;8.748;2023-05-14T01:35:23;9.00;99.90
6627;DHT22;3349;49.830;8.748;2023-05-14T01:37:53;8.90;99.90
6627;DHT22;3349;49.830;8.748;2023-05-14T01:40:21;8.90;99.90
6627;DHT22;3349;49.830;8.748;2023-05-14T01:42:48;8.90;99.90
6627;DHT22;3349;49.830;8.748;2023-05-14T01:45:16;8.90;99.90
6627;DHT22;3349;49.830;8.748;2023-05-14T01:47:43;8.80;99.90
6627;DHT22;3349;49.830;8.748;2023-05-14T01:50:10;8.80;99.90
6627;DHT22;3349;49.830;8.748;2023-05-14T01:52:36;8.80;99.90
6627;DHT22;3349;49.830;8.748;2023-05-14T01:55:05;8.80;99.90
6627;DHT22;3349;49.830;8.748;2023-05-14T01:57:32;8.80;99.90
6627;DHT22;3349;49.830;8.748;2023-05-14T01:59:59;8.70;99.90
6627;DHT22;3349;49.830;8.748;2023-05-14T02:02:25;8.70;99.90
6627;DHT22;3349;49.830;8.748;2023-05-14T02:04:52;8.70;99.90
6627;DHT22;3349;49.830;8.748;2023-05-14T02:07:19;8.70;99.90
6627;DHT22;3349;49.830;8.748;2023-05-14T02:09:45;8.60;99.90
6627;DHT22;3349;49.830;8.748;2023-05-14T02:12:14;8.70;99.90
6627;DHT22;3349;49.830;8.748;2023-05-14T02:14:41;8.70;99.90
6627;DHT22;3349;49.830;8.748;2023-05-14T02:17:07;8.70;99.90
6627;DHT22;3349;49.830;8.748;2023-05-14T02:19:34;8.60;99.90
6627;DHT22;3349;49.830;8.748;2023-05-14T02:22:01;8.60;99.90
6627;DHT22;3349;49.830;8.748;2023-05-14T02:24:27;8.60;99.90
6627;DHT22;3349;49.830;8.748;2023-05-14T02:26:54;8.60;99.90
6627;DHT22;3349;49.830;8.748;2023-05-14T02:29:22;8.60;99.90
6627;DHT22;3349;49.830;8.748;2023-05-14T02:31:49;8.50;99.90
6627;DHT22;3349;49.830;8.748;2023-05-14T02:34:15;8.50;99.90
6627;DHT22;3349;49.830;8.748;2023-05-14T02:36:42;8.50;99.90
6627;DHT22;3349;49.830;8.748;2023-05-14T02:39:09;8.40;99.90
6627;DHT22;3349;49.830;8.748;2023-05-14T02:41:35;8.30;99.90
6627;DHT22;3349;49.830;8.748;2023-05-14T02:44:02;8.30;99.90
6627;DHT22;3349;49.830;8.748;2023-05-14T02:46:31;8.20;99.90
6627;DHT22;3349;49.830;8.748;2023-05-14T02:48:58;8.20;99.90
6627;DHT22;3349;49.830;8.748;2023-05-14T02:51:24;8.20;99.90
6627;DHT22;3349;49.830;8.748;2023-05-14T02:53:51;8.20;99.90
6627;DHT22;3349;49.830;8.748;2023-05-14T02:56:18;8.10;99.90
6627;DHT22;3349;49.830;8.748;2023-05-14T02:58:45;8.10;99.90
6627;DHT22;3349;49.830;8.748;2023-05-14T03:01:12;8.20;99.90
6627;DHT22;3349;49.830;8.748;2023-05-14T03:03:40;8.20;99.90
6627;DHT22;3349;49.830;8.748;2023-05-14T03:06:07;8.10;99.90
6627;DHT22;3349;49.830;8.748;2023-05-14T03:08:34;8.10;99.90
6627;DHT22;3349;49.830;8.748;2023-05-14T03:11:00;8.10;99.90
6627;DHT22;3349;49.830;8.748;2023-05-14T03:13:27;8.10;99.90
6627;DHT22;3349;49.830;8.748;2023-05-14T03:15:54;8.10;99.90
6627;DHT22;3349;49.830;8.748;2023-05-14T03:18:21;8.10;99.90
6627;DHT22;3349;49.830;8.748;2023-05-14T03:20:49;8.00;99.90
6627;DHT22;3349;49.830;8.748;2023-05-14T03:23:16;8.10;99.90
6627;DHT22;3349;49.830;8.748;2023-05-14T03:25:42;8.00;99.90
6627;DHT22;3349;49.830;8.748;2023-05-14T03:28:09;8.00;99.90
6627;DHT22;3349;49.830;8.748;2023-05-14T03:30:36;8.00;99.90
6627;DHT22;3349;49.830;8.748;2023-05-14T03:33:03;7.90;99.90
6627;DHT22;3349;49.830;8.748;2023-05-14T03:35:30;8.00;99.90
6627;DHT22;3349;49.830;8.748;2023-05-14T03:37:58;8.00;99.90
6627;DHT22;3349;49.830;8.748;2023-05-14T03:40:24;8.00;99.90
6627;DHT22;3349;49.830;8.748;2023-05-14T03:42:51;7.90;99.90
6627;DHT22;3349;49.830;8.748;2023-05-14T03:45:18;7.90;99.90
6627;DHT22;3349;49.830;8.748;2023-05-14T03:47:45;7.90;99.90
6627;DHT22;3349;49.830;8.748;2023-05-14T03:50:12;7.90;99.90
6627;DHT22;3349;49.830;8.748;2023-05-14T03:52:39;7.90;99.90
6627;DHT22;3349;49.830;8.748;2023-05-14T03:55:08;7.90;99.90
6627;DHT22;3349;49.830;8.748;2023-05-14T03:57:35;7.80;99.90
6627;DHT22;3349;49.830;8.748;2023-05-14T04:00:02;7.80;99.90
6627;DHT22;3349;49.830;8.748;2023-05-14T04:02:28;7.80;99.90
6627;DHT22;3349;49.830;8.748;2023-05-14T04:04:55;7.80;99.90
6627;DHT22;3349;49.830;8.748;2023-05-14T04:07:22;7.90;99.90
6627;DHT22;3349;49.830;8.748;2023-05-14T04:09:48;7.90;99.90
6627;DHT22;3349;49.830;8.748;2023-05-14T04:12:16;7.90;99.90
6627;DHT22;3349;49.830;8.748;2023-05-14T04:14:43;8.00;99.90
6627;DHT22;3349;49.830;8.748;2023-05-14T04:17:10;8.00;99.90
6627;DHT22;3349;49.830;8.748;2023-05-14T04:19:36;8.00;99.90
6627;DHT22;3349;49.830;8.748;2023-05-14T04:22:03;8.00;99.90
6627;DHT22;3349;49.830;8.748;2023-05-14T04:24:30;8.00;99.90
6627;DHT22;3349;49.830;8.748;2023-05-14T04:26:57;7.90;99.90
6627;DHT22;3349;49.830;8.748;2023-05-14T04:29:25;7.90;99.90
6627;DHT22;3349;49.830;8.748;2023-05-14T04:31:52;7.90;99.90
6627;DHT22;3349;49.830;8.748;2023-05-14T04:34:18;7.90;99.90
6627;DHT22;3349;49.830;8.748;2023-05-14T04:36:45;7.90;99.90
6627;DHT22;3349;49.830;8.748;2023-05-14T04:39:12;7.90;99.90
6627;DHT22;3349;49.830;8.748;2023-05-14T04:41:39;7.90;99.90
6627;DHT22;3349;49.830;8.748;2023-05-14T04:44:07;8.00;99.90
6627;DHT22;3349;49.830;8.748;2023-05-14T04:46:35;8.00;99.90
6627;DHT22;3349;49.830;8.748;2023-05-14T04:49:02;8.00;99.90
6627;DHT22;3349;49.830;8.748;2023-05-14T04:51:28;8.10;99.90
6627;DHT22;3349;49.830;8.748;2023-05-14T04:53:55;8.10;99.90
6627;DHT22;3349;49.830;8.748;2023-05-14T04:56:22;8.20;99.90
6627;DHT22;3349;49.830;8.748;2023-05-14T04:58:48;8.20;99.90
6627;DHT22;3349;49.830;8.748;2023-05-14T05:01:18;8.20;99.90
6627;DHT22;3349;49.830;8.748;2023-05-14T05:03:46;8.30;99.90
6627;DHT22;3349;49.830;8.748;2023-05-14T05:06:13;8.50;99.90
6627;DHT22;3349;49.830;8.748;2023-05-14T05:08:40;8.70;99.90
6627;DHT22;3349;49.830;8.748;2023-05-14T05:11:07;8.80;99.90
6627;DHT22;3349;49.830;8.748;2023-05-14T05:13:34;9.00;99.90
6627;DHT22;3349;49.830;8.748;2023-05-14T05:16:01;9.10;99.90
6627;DHT22;3349;49.830;8.748;2023-05-14T05:18:27;9.30;99.90
6627;DHT22;3349;49.830;8.748;2023-05-14T05:20:55;9.50;99.90
6627;DHT22;3349;49.830;8.748;2023-05-14T05:23:22;9.80;99.90
6627;DHT22;3349;49.830;8.748;2023-05-14T05:25:49;9.90;99.90
6627;DHT22;3349;49.830;8.748;2023-05-14T05:28:16;10.10;99.90
6627;DHT22;3349;49.830;8.748;2023-05-14T05:30:42;10.20;99.90
6627;DHT22;3349;49.830;8.748;2023-05-14T05:33:10;10.40;99.90
6627;DHT22;3349;49.830;8.748;2023-05-14T05:35:37;10.60;99.90
6627;DHT22;3349;49.830;8.748;2023-05-14T05:38:05;10.90;99.90
6627;DHT22;3349;49.830;8.748;2023-05-14T05:40:32;11.20;99.90
6627;DHT22;3349;49.830;8.748;2023-05-14T05:42:59;11.40;99.90
6627;DHT22;3349;49.830;8.748;2023-05-14T05:45:25;11.60;99.90
6627;DHT22;3349;49.830;8.748;2023-05-14T05:47:52;11.80;99.90
6627;DHT22;3349;49.830;8.748;2023-05-14T05:50:19;11.90;99.90
6627;DHT22;3349;49.830;8.748;2023-05-14T05:52:46;12.00;99.90
6627;DHT22;3349;49.830;8.748;2023-05-14T05:55:15;12.10;99.90
6627;DHT22;3349;49.830;8.748;2023-05-14T05:57:41;12.20;99.90
6627;DHT22;3349;49.830;8.748;2023-05-14T06:00:09;12.20;99.90
6627;DHT22;3349;49.830;8.748;2023-05-14T06:02:40;12.20;99.90
6627;DHT22;3349;49.830;8.748;2023-05-14T06:05:08;12.10;99.90
6627;DHT22;3349;49.830;8.748;2023-05-14T06:07:35;12.10;99.90
6627;DHT22;3349;49.830;8.748;2023-05-14T06:10:02;12.10;99.90
6627;DHT22;3349;49.830;8.748;2023-05-14T06:12:30;12.10;99.90
6627;DHT22;3349;49.830;8.748;2023-05-14T06:14:57;12.10;99.90
6627;DHT22;3349;49.830;8.748;2023-05-14T06:17:24;12.10;99.90
6627;DHT22;3349;49.830;8.748;2023-05-14T06:19:51;12.10;99.90
6627;DHT22;3349;49.830;8.748;2023-05-14T06:22:18;12.10;99.90
6627;DHT22;3349;49.830;8.748;2023-05-14T06:24:46;12.10;99.90
6627;DHT22;3349;49.830;8.748;2023-05-14T06:27:12;12.20;99.90
6627;DHT22;3349;49.830;8.748;2023-05-14T06:29:41;12.20;99.90
6627;DHT22;3349;49.830;8.748;2023-05-14T06:32:07;12.30;99.90
6627;DHT22;3349;49.830;8.748;2023-05-14T06:34:34;12.30;99.90
6627;DHT22;3349;49.830;8.748;2023-05-14T06:37:01;12.40;99.90
6627;DHT22;3349;49.830;8.748;2023-05-14T06:39:28;12.50;99.90
6627;DHT22;3349;49.830;8.748;2023-05-14T06:41:55;12.50;99.90
6627;DHT22;3349;49.830;8.748;2023-05-14T06:44:21;12.50;99.90
6627;DHT22;3349;49.830;8.748;2023-05-14T06:46:50;12.60;99.90
6627;DHT22;3349;49.830;8.748;2023-05-14T06:49:17;12.60;99.90
6627;DHT22;3349;49.830;8.748;2023-05-14T06:51:43;12.60;99.70
6627;DHT22;3349;49.830;8.748;2023-05-14T06:54:10;12.60;97.80
6627;DHT22;3349;49.830;8.748;2023-05-14T06:56:37;12.70;97.70
6627;DHT22;3349;49.830;8.748;2023-05-14T06:59:04;12.70;98.40
6627;DHT22;3349;49.830;8.748;2023-05-14T07:01:31;12.80;96.70
6627;DHT22;3349;49.830;8.748;2023-05-14T07:03:59;12.90;95.20
6627;DHT22;3349;49.830;8.748;2023-05-14T07:06:26;13.00;95.80
6627;DHT22;3349;49.830;8.748;2023-05-14T07:08:53;13.00;95.10
6627;DHT22;3349;49.830;8.748;2023-05-14T07:11:19;13.10;94.40
6627;DHT22;3349;49.830;8.748;2023-05-14T07:13:46;13.20;93.70
6627;DHT22;3349;49.830;8.748;2023-05-14T07:16:13;13.40;92.70
6627;DHT22;3349;49.830;8.748;2023-05-14T07:18:40;13.60;90.80
6627;DHT22;3349;49.830;8.748;2023-05-14T07:21:08;13.70;90.40
6627;DHT22;3349;49.830;8.748;2023-05-14T07:23:34;13.80;88.50
6627;DHT22;3349;49.830;8.748;2023-05-14T07:26:03;14.10;87.30
6627;DHT22;3349;49.830;8.748;2023-05-14T07:28:30;14.60;85.30
6627;DHT22;3349;49.830;8.748;2023-05-14T07:30:57;15.20;81.60
6627;DHT22;3349;49.830;8.748;2023-05-14T07:33:24;16.00;73.50
6627;DHT22;3349;49.830;8.748;2023-05-14T07:35:50;16.90;62.70
6627;DHT22;3349;49.830;8.748;2023-05-14T07:38:20;17.70;59.00
6627;DHT22;3349;49.830;8.748;2023-05-14T07:40:46;18.60;55.60
6627;DHT22;3349;49.830;8.748;2023-05-14T07:43:13;19.30;53.90
6627;DHT22;3349;49.830;8.748;2023-05-14T07:45:40;19.70;51.60
6627;DHT22;3349;49.830;8.748;2023-05-14T07:48:07;20.20;50.00
6627;DHT22;3349;49.830;8.748;2023-05-14T07:50:33;19.90;48.70
6627;DHT22;3349;49.830;8.748;2023-05-14T07:53:00;19.80;48.50
6627;DHT22;3349;49.830;8.748;2023-05-14T07:55:28;19.80;48.80
6627;DHT22;3349;49.830;8.748;2023-05-14T07:57:55;20.50;47.60
6627;DHT22;3349;49.830;8.748;2023-05-14T08:00:21;20.40;46.40
6627;DHT22;3349;49.830;8.748;2023-05-14T08:02:49;20.40;47.50
6627;DHT22;3349;49.830;8.748;2023-05-14T08:05:16;20.50;47.30
6627;DHT22;3349;49.830;8.748;2023-05-14T08:07:43;20.60;47.90
6627;DHT22;3349;49.830;8.748;2023-05-14T08:10:10;21.00;46.30
6627;DHT22;3349;49.830;8.748;2023-05-14T08:12:38;21.40;46.90
6627;DHT22;3349;49.830;8.748;2023-05-14T08:15:06;22.00;44.50
6627;DHT22;3349;49.830;8.748;2023-05-14T08:17:33;22.50;43.60
6627;DHT22;3349;49.830;8.748;2023-05-14T08:20:00;22.80;42.50
6627;DHT22;3349;49.830;8.748;2023-05-14T08:22:27;23.00;41.50
6627;DHT22;3349;49.830;8.748;2023-05-14T08:24:53;22.40;42.10
6627;DHT22;3349;49.830;8.748;2023-05-14T08:27:20;22.50;42.20
6627;DHT22;3349;49.830;8.748;2023-05-14T08:29:48;23.60;40.60
6627;DHT22;3349;49.830;8.748;2023-05-14T08:32:15;24.50;38.50
6627;DHT22;3349;49.830;8.748;2023-05-14T08:34:42;24.10;37.10
6627;DHT22;3349;49.830;8.748;2023-05-14T08:37:09;25.10;37.40
6627;DHT22;3349;49.830;8.748;2023-05-14T08:39:35;25.10;35.60
6627;DHT22;3349;49.830;8.748;2023-05-14T08:42:05;25.70;34.50
6627;DHT22;3349;49.830;8.748;2023-05-14T08:44:37;26.10;32.60
6627;DHT22;3349;49.830;8.748;2023-05-14T08:47:06;26.30;33.20
6627;DHT22;3349;49.830;8.748;2023-05-14T08:49:37;27.30;31.50
6627;DHT22;3349;49.830;8.748;2023-05-14T08:52:06;27.70;30.70
6627;DHT22;3349;49.830;8.748;2023-05-14T08:54:33;27.80;30.50
6627;DHT22;3349;49.830;8.748;2023-05-14T08:57:02;28.10;29.70
6627;DHT22;3349;49.830;8.748;2023-05-14T08:59:29;27.90;29.70
6627;DHT22;3349;49.830;8.748;2023-05-14T09:01:59;27.60;30.60
6627;DHT22;3349;49.830;8.748;2023-05-14T09:04:28;27.20;31.00
6627;DHT22;3349;49.830;8.748;2023-05-14T09:06:55;27.50;29.80
6627;DHT22;3349;49.830;8.748;2023-05-14T09:09:22;26.80;30.50
6627;DHT22;3349;49.830;8.748;2023-05-14T09:11:50;27.20;31.20
6627;DHT22;3349;49.830;8.748;2023-05-14T09:14:17;27.90;30.70
6627;DHT22;3349;49.830;8.748;2023-05-14T09:16:44;28.30;29.10
6627;DHT22;3349;49.830;8.748;2023-05-14T09:19:12;28.80;28.40
6627;DHT22;3349;49.830;8.748;2023-05-14T09:21:41;29.60;28.40
6627;DHT22;3349;49.830;8.748;2023-05-14T09:24:18;29.60;27.50
6627;DHT22;3349;49.830;8.748;2023-05-14T09:26:49;28.30;28.60
6627;DHT22;3349;49.830;8.748;2023-05-14T09:29:16;27.20;29.90
6627;DHT22;3349;49.830;8.748;2023-05-14T09:31:43;26.30;31.80
6627;DHT22;3349;49.830;8.748;2023-05-14T09:34:10;25.50;32.60
6627;DHT22;3349;49.830;8.748;2023-05-14T09:36:37;24.90;34.50
6627;DHT22;3349;49.830;8.748;2023-05-14T09:39:05;24.20;34.90
6627;DHT22;3349;49.830;8.748;2023-05-14T09:41:32;23.20;35.80
6627;DHT22;3349;49.830;8.748;2023-05-14T09:43:58;22.70;37.90
6627;DHT22;3349;49.830;8.748;2023-05-14T09:46:26;22.70;37.80
6627;DHT22;3349;49.830;8.748;2023-05-14T09:48:57;23.00;37.50
6627;DHT22;3349;49.830;8.748;2023-05-14T09:51:23;23.00;37.50
6627;DHT22;3349;49.830;8.748;2023-05-14T09:53:51;22.60;38.10
6627;DHT22;3349;49.830;8.748;2023-05-14T09:56:20;22.30;39.40
6627;DHT22;3349;49.830;8.748;2023-05-14T09:58:47;22.60;38.40
6627;DHT22;3349;49.830;8.748;2023-05-14T10:01:17;22.10;38.90
6627;DHT22;3349;49.830;8.748;2023-05-14T10:03:44;21.70;40.50
6627;DHT22;3349;49.830;8.748;2023-05-14T10:06:12;21.40;41.30
6627;DHT22;3349;49.830;8.748;2023-05-14T10:08:44;21.20;41.30
6627;DHT22;3349;49.830;8.748;2023-05-14T10:11:13;20.90;41.40
6627;DHT22;3349;49.830;8.748;2023-05-14T10:13:48;20.70;42.60
6627;DHT22;3349;49.830;8.748;2023-05-14T10:16:24;20.70;42.10
6627;DHT22;3349;49.830;8.748;2023-05-14T10:18:55;20.40;41.90
6627;DHT22;3349;49.830;8.748;2023-05-14T10:21:24;20.20;43.20
6627;DHT22;3349;49.830;8.748;2023-05-14T10:23:53;19.90;43.60
6627;DHT22;3349;49.830;8.748;2023-05-14T10:26:19;19.80;44.60
6627;DHT22;3349;49.830;8.748;2023-05-14T10:28:48;19.60;44.70
6627;DHT22;3349;49.830;8.748;2023-05-14T10:31:15;19.60;45.30
6627;DHT22;3349;49.830;8.748;2023-05-14T10:33:48;19.50;45.40
6627;DHT22;3349;49.830;8.748;2023-05-14T10:36:16;19.30;45.80
6627;DHT22;3349;49.830;8.748;2023-05-14T10:38:43;19.10;46.30
6627;DHT22;3349;49.830;8.748;2023-05-14T10:41:12;19.30;46.30
6627;DHT22;3349;49.830;8.748;2023-05-14T10:43:40;19.70;46.00
6627;DHT22;3349;49.830;8.748;2023-05-14T10:46:11;19.40;46.10
6627;DHT22;3349;49.830;8.748;2023-05-14T10:48:41;19.10;46.80
6627;DHT22;3349;49.830;8.748;2023-05-14T10:51:09;19.50;46.90
6627;DHT22;3349;49.830;8.748;2023-05-14T10:53:37;19.60;46.50
6627;DHT22;3349;49.830;8.748;2023-05-14T10:56:06;19.30;45.50
6627;DHT22;3349;49.830;8.748;2023-05-14T10:58:35;19.00;46.60
6627;DHT22;3349;49.830;8.748;2023-05-14T11:01:02;19.20;46.60
6627;DHT22;3349;49.830;8.748;2023-05-14T11:03:38;19.20;46.30
6627;DHT22;3349;49.830;8.748;2023-05-14T11:06:05;19.20;46.30
6627;DHT22;3349;49.830;8.748;2023-05-14T11:08:32;19.20;46.70
6627;DHT22;3349;49.830;8.748;2023-05-14T11:10:59;19.30;46.40
6627;DHT22;3349;49.830;8.748;2023-05-14T11:13:26;18.80;47.60
6627;DHT22;3349;49.830;8.748;2023-05-14T11:15:54;18.70;47.50
6627;DHT22;3349;49.830;8.748;2023-05-14T11:18:28;18.50;47.30
6627;DHT22;3349;49.830;8.748;2023-05-14T11:20:58;18.50;47.80
6627;DHT22;3349;49.830;8.748;2023-05-14T11:23:26;18.40;47.50
6627;DHT22;3349;49.830;8.748;2023-05-14T11:25:54;18.50;48.10
6627;DHT22;3349;49.830;8.748;2023-05-14T11:28:21;18.50;48.20
6627;DHT22;3349;49.830;8.748;2023-05-14T11:30:49;18.40;48.90
6627;DHT22;3349;49.830;8.748;2023-05-14T11:33:16;18.40;49.20
6627;DHT22;3349;49.830;8.748;2023-05-14T11:35:43;18.40;49.40
6627;DHT22;3349;49.830;8.748;2023-05-14T11:38:16;18.30;49.50
6627;DHT22;3349;49.830;8.748;2023-05-14T11:40:50;18.20;50.60
6627;DHT22;3349;49.830;8.748;2023-05-14T11:43:18;18.20;49.80
6627;DHT22;3349;49.830;8.748;2023-05-14T11:45:48;18.00;49.80
6627;DHT22;3349;49.830;8.748;2023-05-14T11:48:15;18.00;49.90
6627;DHT22;3349;49.830;8.748;2023-05-14T11:50:44;18.00;50.40
6627;DHT22;3349;49.830;8.748;2023-05-14T11:53:17;18.10;50.20
6627;DHT22;3349;49.830;8.748;2023-05-14T11:55:45;18.10;50.60
6627;DHT22;3349;49.830;8.748;2023-05-14T11:58:12;18.20;50.80
6627;DHT22;3349;49.830;8.748;2023-05-14T12:00:40;18.30;50.20
6627;DHT22;3349;49.830;8.748;2023-05-14T12:03:08;18.40;49.90
6627;DHT22;3349;49.830;8.748;2023-05-14T12:05:36;18.50;49.80
6627;DHT22;3349;49.830;8.748;2023-05-14T12:08:20;18.60;50.00
6627;DHT22;3349;49.830;8.748;2023-05-14T12:10:46;18.70;49.30
6627;DHT22;3349;49.830;8.748;2023-05-14T12:13:14;18.60;48.40
6627;DHT22;3349;49.830;8.748;2023-05-14T12:15:44;18.70;48.90
6627;DHT22;3349;49.830;8.748;2023-05-14T12:18:11;18.70;48.40
6627;DHT22;3349;49.830;8.748;2023-05-14T12:20:38;18.70;47.50
6627;DHT22;3349;49.830;8.748;2023-05-14T12:23:09;18.70;47.50
6627;DHT22;3349;49.830;8.748;2023-05-14T12:25:38;18.80;47.20
6627;DHT22;3349;49.830;8.748;2023-05-14T12:28:13;18.70;47.50
6627;DHT22;3349;49.830;8.748;2023-05-14T12:30:40;18.40;47.30
6627;DHT22;3349;49.830;8.748;2023-05-14T12:33:06;18.30;47.80
6627;DHT22;3349;49.830;8.748;2023-05-14T12:35:33;18.40;48.90
6627;DHT22;3349;49.830;8.748;2023-05-14T12:38:01;18.60;48.60
6627;DHT22;3349;49.830;8.748;2023-05-14T12:40:27;18.70;48.20
6627;DHT22;3349;49.830;8.748;2023-05-14T12:42:56;18.80;48.00
6627;DHT22;3349;49.830;8.748;2023-05-14T12:45:22;19.00;48.90
6627;DHT22;3349;49.830;8.748;2023-05-14T12:47:50;19.20;47.90
6627;DHT22;3349;49.830;8.748;2023-05-14T12:50:17;19.30;47.40
6627;DHT22;3349;49.830;8.748;2023-05-14T12:52:43;19.50;46.10
6627;DHT22;3349;49.830;8.748;2023-05-14T12:55:10;19.70;46.40
6627;DHT22;3349;49.830;8.748;2023-05-14T12:57:37;19.90;46.50
6627;DHT22;3349;49.830;8.748;2023-05-14T13:00:07;20.00;45.70
6627;DHT22;3349;49.830;8.748;2023-05-14T13:02:35;20.00;44.70
6627;DHT22;3349;49.830;8.748;2023-05-14T13:05:03;20.00;44.40
6627;DHT22;3349;49.830;8.748;2023-05-14T13:07:30;20.00;44.40
6627;DHT22;3349;49.830;8.748;2023-05-14T13:09:57;19.80;43.70
6627;DHT22;3349;49.830;8.748;2023-05-14T13:12:23;20.00;44.10
6627;DHT22;3349;49.830;8.748;2023-05-14T13:14:50;20.20;44.60
6627;DHT22;3349;49.830;8.748;2023-05-14T13:17:18;20.20;44.60
6627;DHT22;3349;49.830;8.748;2023-05-14T13:19:45;20.50;44.80
6627;DHT22;3349;49.830;8.748;2023-05-14T13:22:12;20.60;43.40
6627;DHT22;3349;49.830;8.748;2023-05-14T13:24:41;20.60;43.90
6627;DHT22;3349;49.830;8.748;2023-05-14T13:27:08;20.60;44.20
6627;DHT22;3349;49.830;8.748;2023-05-14T13:29:35;20.80;43.10
6627;DHT22;3349;49.830;8.748;2023-05-14T13:32:01;20.90;42.30
6627;DHT22;3349;49.830;8.748;2023-05-14T13:34:29;21.00;42.60
6627;DHT22;3349;49.830;8.748;2023-05-14T13:36:56;21.20;42.40
6627;DHT22;3349;49.830;8.748;2023-05-14T13:39:23;21.00;41.70
6627;DHT22;3349;49.830;8.748;2023-05-14T13:41:51;21.20;43.00
6627;DHT22;3349;49.830;8.748;2023-05-14T13:44:20;21.10;42.30
6627;DHT22;3349;49.830;8.748;2023-05-14T13:46:46;21.20;42.30
6627;DHT22;3349;49.830;8.748;2023-05-14T13:49:13;21.30;42.80
6627;DHT22;3349;49.830;8.748;2023-05-14T13:51:41;21.40;42.70
6627;DHT22;3349;49.830;8.748;2023-05-14T13:54:08;21.50;43.10
6627;DHT22;3349;49.830;8.748;2023-05-14T13:56:35;21.20;41.60
6627;DHT22;3349;49.830;8.748;2023-05-14T13:59:02;21.10;42.20
6627;DHT22;3349;49.830;8.748;2023-05-14T14:01:28;21.00;42.70
6627;DHT22;3349;49.830;8.748;2023-05-14T14:03:56;21.00;43.00
6627;DHT22;3349;49.830;8.748;2023-05-14T14:06:24;20.60;43.10
6627;DHT22;3349;49.830;8.748;2023-05-14T14:08:52;20.20;44.10
6627;DHT22;3349;49.830;8.748;2023-05-14T14:11:19;20.00;44.90
6627;DHT22;3349;49.830;8.748;2023-05-14T14:13:46;19.90;45.60
6627;DHT22;3349;49.830;8.748;2023-05-14T14:16:13;19.90;45.50
6627;DHT22;3349;49.830;8.748;2023-05-14T14:18:40;20.20;44.40
6627;DHT22;3349;49.830;8.748;2023-05-14T14:21:07;20.40;44.70
6627;DHT22;3349;49.830;8.748;2023-05-14T14:23:34;20.70;44.00
6627;DHT22;3349;49.830;8.748;2023-05-14T14:26:02;21.30;42.20
6627;DHT22;3349;49.830;8.748;2023-05-14T14:28:29;22.10;41.10
6627;DHT22;3349;49.830;8.748;2023-05-14T14:30:56;22.70;39.70
6627;DHT22;3349;49.830;8.748;2023-05-14T14:33:23;23.10;38.50
6627;DHT22;3349;49.830;8.748;2023-05-14T14:35:49;23.80;38.00
6627;DHT22;3349;49.830;8.748;2023-05-14T14:38:17;24.20;36.80
6627;DHT22;3349;49.830;8.748;2023-05-14T14:40:44;24.90;35.60
6627;DHT22;3349;49.830;8.748;2023-05-14T14:43:12;25.30;34.30
6627;DHT22;3349;49.830;8.748;2023-05-14T14:45:39;25.00;33.90
6627;DHT22;3349;49.830;8.748;2023-05-14T14:48:25;24.90;34.50
6627;DHT22;3349;49.830;8.748;2023-05-14T14:50:53;25.70;34.20
6627;DHT22;3349;49.830;8.748;2023-05-14T14:53:19;25.60;33.50
6627;DHT22;3349;49.830;8.748;2023-05-14T14:55:46;25.90;33.20
6627;DHT22;3349;49.830;8.748;2023-05-14T14:58:15;26.10;31.40
6627;DHT22;3349;49.830;8.748;2023-05-14T15:00:42;25.80;30.80
6627;DHT22;3349;49.830;8.748;2023-05-14T15:03:10;26.10;30.00
6627;DHT22;3349;49.830;8.748;2023-05-14T15:05:37;25.80;29.90
6627;DHT22;3349;49.830;8.748;2023-05-14T15:08:04;26.10;30.30
6627;DHT22;3349;49.830;8.748;2023-05-14T15:10:31;26.00;29.70
6627;DHT22;3349;49.830;8.748;2023-05-14T15:13:03;25.90;30.20
6627;DHT22;3349;49.830;8.748;2023-05-14T15:15:31;25.90;31.50
6627;DHT22;3349;49.830;8.748;2023-05-14T15:17:58;25.80;30.10
6627;DHT22;3349;49.830;8.748;2023-05-14T15:20:24;25.90;30.00
6627;DHT22;3349;49.830;8.748;2023-05-14T15:22:51;25.40;30.00
6627;DHT22;3349;49.830;8.748;2023-05-14T15:25:18;25.70;30.90
6627;DHT22;3349;49.830;8.748;2023-05-14T15:27:45;25.80;30.10
6627;DHT22;3349;49.830;8.748;2023-05-14T15:30:13;25.50;30.00
6627;DHT22;3349;49.830;8.748;2023-05-14T15:32:42;25.90;30.00
6627;DHT22;3349;49.830;8.748;2023-05-14T15:35:10;25.10;30.60
6627;DHT22;3349;49.830;8.748;2023-05-14T15:37:38;25.20;30.10
6627;DHT22;3349;49.830;8.748;2023-05-14T15:40:06;24.50;30.60
6627;DHT22;3349;49.830;8.748;2023-05-14T15:42:34;24.80;32.00
6627;DHT22;3349;49.830;8.748;2023-05-14T15:45:01;24.80;31.10
6627;DHT22;3349;49.830;8.748;2023-05-14T15:47:27;24.50;31.60
6627;DHT22;3349;49.830;8.748;2023-05-14T15:49:55;24.00;31.30
6627;DHT22;3349;49.830;8.748;2023-05-14T15:52:22;23.80;32.90
6627;DHT22;3349;49.830;8.748;2023-05-14T15:54:49;23.90;32.40
6627;DHT22;3349;49.830;8.748;2023-05-14T15:57:16;23.90;31.30
6627;DHT22;3349;49.830;8.748;2023-05-14T15:59:43;23.70;31.60
6627;DHT22;3349;49.830;8.748;2023-05-14T16:02:11;23.70;34.00
6627;DHT22;3349;49.830;8.748;2023-05-14T16:04:38;23.80;33.80
6627;DHT22;3349;49.830;8.748;2023-05-14T16:07:07;23.60;33.30
6627;DHT22;3349;49.830;8.748;2023-05-14T16:09:34;23.40;34.20